Hovedside
METAR-TAF:

METAR-TAF

Lufthavner :

Gibraltar lufthavn

Gibraltar, Gibraltar

breddegrad: 36-09N, lengdegrad: 005-21W, høyde over havet: 5 m

Gjeldene værobservasjon

Denne rapporten ble laget for 25 minutter siden, klokken 07:50 UTC
Vind 8 kt fra Øst-nordøst
Temperatur 21°C
Luftfuktighet 78%
Trykk 1016 hPa
Sikt 10 km eller mer
ingen skyer under 1500 m og ingen bygeskyer

METAR: LXGB 230750Z 07008KT CAVOK 21/17 Q1016 NOSIG

Tid: 10:15 (08:15 UTC)

Varsel

Denne rapporten ble laget for 3 timer og 19 minutter siden, klokken 04:56 UTC
Varsel gyldig fra 23. klokken 06 UTC til 23. klokken 15 UTC
Vind 8 kt fra Øst
Sikt 10 km eller mer
ingen skyer under 1500 m og ingen bygeskyer

TAF: LXGB 230456Z 2306/2315 08008KT CAVOK

Værobservasjoner og værvarsel for over 4000 flyplasser (METAR- og TAF-rapporter).

Tilgjengelige stasjoner er representert av de røde og gule prikkene på kartet.

Hold musepekeren over prikken for å se navnet på stasjonen.

Klikk så for å se værobservasjoner og -varsler.

For å forandre kartet kan du klikke på den grønne knappen med svart kryss for å zoome inn, på den grønne knappen med strek for å zoome ut, eller på de grønne pilene for å se tilstøtende kart.


METAR-TAF: